Time;durP1;ratioP1;P1;durP2;ratioP2;P2;SDS_P1;SDS_P2;PMS_P1;PMS_P2;Temp;Humidity;BMP_temperature;BMP_pressure;BME280_temperature;BME280_humidity;BME280_pressure;Samples;Min_cycle;Max_cycle;Signal;HPM_P1;HPM_P2
2022/01/10 00:00:17;;;;;;;48.87;27.80;;;;;;;8.22;95.97;98137.03;5069955;28;20278;-58
2022/01/10 00:02:45;;;;;;;44.30;26.27;;;;;;;8.22;96.62;98137.91;5072989;28;20197;-57
2022/01/10 00:05:12;;;;;;;47.63;27.80;;;;;;;8.32;96.49;98141.41;5073020;28;20199;-57
2022/01/10 00:07:39;;;;;;;46.53;29.00;;;;;;;8.32;96.75;98141.41;5073049;28;20270;-57
2022/01/10 00:10:07;;;;;;;47.27;28.63;;;;;;;8.25;96.71;98129.38;5072832;28;20287;-57
2022/01/10 00:12:34;;;;;;;45.27;29.37;;;;;;;8.18;96.75;98133.66;5072661;28;20281;-58
2022/01/10 00:15:03;;;;;;;46.53;28.93;;;;;;;8.24;97.01;98132.81;5072644;28;20314;-58
2022/01/10 00:17:30;;;;;;;48.97;29.77;;;;;;;8.26;97.45;98143.91;5072841;28;20516;-57
2022/01/10 00:19:57;;;;;;;42.80;27.43;;;;;;;8.32;97.03;98143.97;5072615;28;20704;-58
2022/01/10 00:22:26;;;;;;;47.27;27.47;;;;;;;8.38;96.62;98143.94;5072775;28;20202;-57
2022/01/10 00:24:53;;;;;;;48.67;29.40;;;;;;;8.42;96.19;98145.69;5072712;28;20201;-58
2022/01/10 00:27:19;;;;;;;40.70;25.23;;;;;;;8.48;96.15;98149.97;5072493;28;20227;-57
2022/01/10 00:29:46;;;;;;;42.07;25.13;;;;;;;8.48;95.54;98147.41;5072591;28;20202;-57
2022/01/10 00:32:14;;;;;;;40.43;24.80;;;;;;;8.47;95.62;98148.25;5072940;28;20192;-58
2022/01/10 00:34:41;;;;;;;43.70;26.10;;;;;;;8.47;95.58;98148.25;5072645;28;20218;-57
2022/01/10 00:37:08;;;;;;;39.30;23.90;;;;;;;8.40;95.36;98139.72;5072566;28;20205;-57
2022/01/10 00:39:35;;;;;;;39.60;25.40;;;;;;;8.45;95.56;98142.28;5072481;28;20220;-57
2022/01/10 00:42:02;;;;;;;40.27;26.53;;;;;;;8.47;95.65;98144.00;5072459;28;20206;-57
2022/01/10 00:44:31;;;;;;;42.93;24.03;;;;;;;8.42;95.85;98132.88;5071998;28;20285;-57
2022/01/10 00:46:58;;;;;;;37.20;23.40;;;;;;;8.38;96.16;98133.72;5072536;28;20206;-57
2022/01/10 00:49:27;;;;;;;41.57;23.63;;;;;;;8.26;96.50;98113.19;5072898;28;20247;-57
2022/01/10 00:51:54;;;;;;;39.27;24.77;;;;;;;8.41;96.10;98126.06;5072257;28;20562;-57
2022/01/10 00:54:21;;;;;;;39.20;23.53;;;;;;;8.20;96.70;98123.41;5071974;28;20202;-57
2022/01/10 00:56:47;;;;;;;36.23;22.63;;;;;;;8.18;97.01;98120.00;5072156;28;20205;-57
2022/01/10 00:59:14;;;;;;;36.23;22.83;;;;;;;8.12;97.80;98115.72;5072419;28;20195;-57
2022/01/10 01:01:41;;;;;;;38.27;24.37;;;;;;;8.25;97.53;98119.16;5072191;28;20199;-57
2022/01/10 01:04:09;;;;;;;35.77;21.43;;;;;;;8.25;97.02;98114.03;5071544;28;20319;-57
2022/01/10 01:06:37;;;;;;;43.80;23.50;;;;;;;8.30;97.12;98113.22;5072016;28;20195;-57
2022/01/10 01:09:08;;;;;;;34.23;22.00;;;;;;;8.35;96.55;98108.13;5071987;28;20194;-56
2022/01/10 01:12:02;;;;;;;38.17;22.80;;;;;;;8.33;96.39;98102.16;5071587;28;20558;-57
2022/01/10 01:14:49;;;;;;;34.67;21.67;;;;;;;8.33;96.44;98097.03;5071835;28;20276;-57
2022/01/10 01:17:32;;;;;;;39.90;22.63;;;;;;;8.34;96.32;98096.19;5071455;28;20206;-57
2022/01/10 01:20:20;;;;;;;40.37;22.57;;;;;;;8.38;96.51;98091.94;5065150;28;20202;-57
2022/01/10 01:25:32;;;;;;;36.47;21.93;;;;;;;8.32;96.23;98091.06;5067629;28;20257;-57
2022/01/10 01:27:59;;;;;;;35.53;21.73;;;;;;;8.34;96.27;98090.22;5071145;28;20318;-57
2022/01/10 01:30:26;;;;;;;35.00;20.87;;;;;;;8.28;96.13;98081.69;5071679;28;20198;-57
2022/01/10 01:32:53;;;;;;;33.27;21.87;;;;;;;8.29;96.78;98079.97;5071247;28;20202;-57
2022/01/10 01:35:24;;;;;;;38.47;22.57;;;;;;;8.21;96.78;98084.19;5058519;28;20230;-57
2022/01/10 01:37:53;;;;;;;33.73;20.47;;;;;;;7.73;97.59;98057.59;5051325;28;20197;-57
2022/01/10 01:40:21;;;;;;;36.17;19.93;;;;;;;7.75;98.22;98074.66;5051315;28;20568;-57
2022/01/10 01:42:48;;;;;;;33.27;20.90;;;;;;;7.90;98.48;98077.25;5051139;28;20193;-57
2022/01/10 01:45:16;;;;;;;33.30;21.30;;;;;;;7.96;98.42;98069.63;5051466;28;20195;-57
2022/01/10 01:47:44;;;;;;;32.53;19.60;;;;;;;7.95;98.53;98075.56;5051123;28;20736;-57
2022/01/10 01:50:12;;;;;;;31.27;19.90;;;;;;;8.05;98.18;98069.63;5051191;28;20200;-57
2022/01/10 01:52:39;;;;;;;33.63;20.70;;;;;;;8.18;97.46;98076.50;5050975;28;20199;-57
2022/01/10 01:55:09;;;;;;;33.37;19.47;;;;;;;8.19;96.85;98065.41;5050943;28;20576;-57
2022/01/10 01:57:38;;;;;;;28.13;18.43;;;;;;;8.21;96.47;98071.41;5051243;28;20277;-57
2022/01/10 02:00:06;;;;;;;36.55;24.55;;;;;;;8.19;96.29;98053.47;5050067;28;20450;-57
2022/01/10 02:02:33;;;;;;;37.43;22.83;;;;;;;8.20;96.45;98055.19;5066471;28;20240;-57
2022/01/10 02:04:59;;;;;;;35.97;21.10;;;;;;;8.20;96.37;98069.69;5070863;28;20344;-57
2022/01/10 02:07:26;;;;;;;40.77;22.40;;;;;;;8.23;96.60;98069.69;5070593;28;20202;-57
2022/01/10 02:09:53;;;;;;;39.90;21.73;;;;;;;8.23;96.18;98065.44;5070641;28;20190;-57
2022/01/10 02:12:23;;;;;;;36.03;21.07;;;;;;;8.19;96.43;98066.25;5070820;28;20283;-57
2022/01/10 02:14:50;;;;;;;38.63;22.13;;;;;;;8.23;96.58;98067.13;5070740;28;20205;-57
2022/01/10 02:17:22;;;;;;;37.60;22.60;;;;;;;8.19;96.67;98066.25;5071207;28;20182;-57
2022/01/10 02:19:56;;;;;;;33.37;20.03;;;;;;;8.07;97.08;98060.28;5070624;28;20194;-57
2022/01/10 02:22:23;;;;;;;34.20;21.23;;;;;;;8.02;97.57;98062.78;5070282;28;20187;-57
2022/01/10 02:24:50;;;;;;;41.50;23.53;;;;;;;7.99;97.99;98072.19;5070012;28;20202;-57
2022/01/10 02:27:18;;;;;;;34.77;21.93;;;;;;;7.99;97.71;98057.69;5070562;28;20195;-56
2022/01/10 02:29:44;;;;;;;34.67;23.20;;;;;;;7.89;98.03;98060.19;5070578;28;20220;-57
2022/01/10 02:32:11;;;;;;;39.57;21.73;;;;;;;7.71;98.82;98061.84;5070319;28;20195;-57
2022/01/10 02:34:38;;;;;;;35.93;23.57;;;;;;;7.70;98.97;98057.56;5070443;28;20281;-57
2022/01/10 02:37:07;;;;;;;40.67;24.10;;;;;;;7.71;99.78;98061.84;5070375;28;20313;-57
2022/01/10 02:39:34;;;;;;;42.23;24.13;;;;;;;7.75;99.83;98062.69;5070654;28;20197;-57
2022/01/10 02:42:01;;;;;;;47.20;26.13;;;;;;;7.65;99.85;98049.03;5070607;28;20193;-58
2022/01/10 02:44:29;;;;;;;41.43;23.93;;;;;;;7.59;99.95;98054.13;5070426;28;20292;-56
2022/01/10 02:46:57;;;;;;;39.47;22.77;;;;;;;7.53;100.00;98051.53;5070142;28;20284;-56
2022/01/10 02:49:26;;;;;;;39.00;23.87;;;;;;;7.49;100.00;98046.41;5069933;28;20195;-56
2022/01/10 02:51:54;;;;;;;42.40;23.63;;;;;;;7.45;100.00;98052.31;5070322;28;20202;-56
2022/01/10 02:54:25;;;;;;;39.50;24.20;;;;;;;7.51;100.00;98054.91;5070358;28;20202;-57
2022/01/10 02:56:55;;;;;;;39.23;24.03;;;;;;;7.47;100.00;98056.59;5070220;28;20219;-57
2022/01/10 02:59:24;;;;;;;43.43;24.33;;;;;;;7.47;100.00;98058.31;5070290;28;20193;-57
2022/01/10 03:01:51;;;;;;;42.83;24.83;;;;;;;7.56;100.00;98060.91;5070264;28;20196;-57
2022/01/10 03:04:19;;;;;;;46.40;25.03;;;;;;;7.61;100.00;98052.41;5070129;28;20195;-57
2022/01/10 03:06:48;;;;;;;43.83;23.87;;;;;;;7.44;100.00;98055.75;5070051;28;20190;-57
2022/01/10 03:09:15;;;;;;;46.50;23.33;;;;;;;7.55;100.00;98047.25;5070244;28;20701;-57
2022/01/10 03:11:44;;;;;;;46.57;24.67;;;;;;;7.59;100.00;98051.56;5070167;28;20195;-57
2022/01/10 03:14:12;;;;;;;43.70;24.93;;;;;;;7.68;100.00;98043.94;5070063;28;20188;-58
2022/01/10 03:16:39;;;;;;;45.03;24.70;;;;;;;7.54;100.00;98048.13;5070329;28;20274;-58
2022/01/10 03:19:06;;;;;;;43.80;26.07;;;;;;;7.43;100.00;98047.22;5070402;28;20237;-58
2022/01/10 03:21:34;;;;;;;51.20;25.47;;;;;;;7.53;100.00;98053.22;5069876;28;20200;-58
2022/01/10 03:24:00;;;;;;;40.73;24.10;;;;;;;7.48;100.00;98060.88;5070001;28;20736;-58
2022/01/10 03:26:27;;;;;;;42.23;24.77;;;;;;;7.49;100.00;98056.63;5069972;28;20219;-58
2022/01/10 03:28:56;;;;;;;41.57;24.13;;;;;;;7.59;100.00;98064.34;5069858;28;20228;-58
2022/01/10 03:31:24;;;;;;;52.45;31.08;;;;;;;7.69;100.00;98065.25;5069257;28;20434;-58
2022/01/10 03:33:51;;;;;;;42.47;23.93;;;;;;;7.79;100.00;98063.56;5069816;28;20237;-58
2022/01/10 03:36:18;;;;;;;43.00;25.60;;;;;;;7.87;100.00;98067.88;5073655;28;20219;-58
2022/01/10 03:38:45;;;;;;;44.33;24.73;;;;;;;7.97;100.00;98072.16;5073419;28;20195;-58
2022/01/10 03:41:12;;;;;;;41.97;23.53;;;;;;;8.03;99.55;98073.88;5073476;28;20218;-58
2022/01/10 03:43:39;;;;;;;42.47;24.67;;;;;;;8.07;99.35;98078.19;5073462;28;20215;-57
2022/01/10 03:46:07;;;;;;;41.37;24.83;;;;;;;8.11;99.12;98085.84;5073367;28;20281;-58
2022/01/10 03:48:34;;;;;;;40.90;25.13;;;;;;;8.14;98.76;98085.00;5073237;28;20205;-58
2022/01/10 03:51:01;;;;;;;47.57;26.27;;;;;;;8.19;98.87;98090.97;5073538;28;20195;-58
2022/01/10 03:53:28;;;;;;;35.63;24.77;;;;;;;8.21;99.02;98094.44;5073259;28;20639;-58
2022/01/10 03:55:55;;;;;;;40.23;24.83;;;;;;;8.26;98.75;98096.16;5073177;28;20226;-58
2022/01/10 03:58:23;;;;;;;40.83;24.10;;;;;;;8.28;99.08;98093.63;5073507;28;20198;-58
2022/01/10 04:00:50;;;;;;;39.33;23.83;;;;;;;8.35;99.21;98099.59;5073434;28;20193;-58
2022/01/10 04:03:18;;;;;;;41.33;24.57;;;;;;;8.33;99.17;98099.59;5060361;28;20207;-58
2022/01/10 04:05:45;;;;;;;39.20;23.70;;;;;;;8.27;99.29;98090.19;5053143;28;20744;-58
2022/01/10 04:08:12;;;;;;;41.33;24.00;;;;;;;8.26;100.00;98091.03;5053021;28;20194;-58
2022/01/10 04:10:39;;;;;;;43.97;23.07;;;;;;;8.35;99.91;98094.50;5053106;28;20202;-59
2022/01/10 04:13:06;;;;;;;36.30;22.53;;;;;;;8.36;99.65;98097.03;5053196;28;20216;-58
2022/01/10 04:15:33;;;;;;;40.20;24.33;;;;;;;8.38;98.95;98097.88;5053176;28;20192;-58
2022/01/10 04:18:02;;;;;;;36.60;22.80;;;;;;;8.41;98.53;98105.56;5052800;28;20201;-58
2022/01/10 04:20:30;;;;;;;36.83;21.90;;;;;;;8.43;98.34;98106.47;5053081;28;20205;-58
2022/01/10 04:22:57;;;;;;;33.03;21.73;;;;;;;8.42;98.19;98103.88;5069610;28;20197;-58
2022/01/10 04:25:24;;;;;;;35.90;22.43;;;;;;;8.47;98.16;98112.41;5072466;28;20559;-57
2022/01/10 04:27:51;;;;;;;35.53;22.20;;;;;;;8.48;98.07;98107.31;5072083;28;20230;-57
2022/01/10 04:30:18;;;;;;;36.03;21.50;;;;;;;8.50;98.21;98113.28;5079319;28;20201;-58
2022/01/10 04:32:45;;;;;;;35.67;21.70;;;;;;;8.51;98.06;98109.88;5081984;28;20194;-58
2022/01/10 04:35:12;;;;;;;34.27;20.80;;;;;;;8.44;97.46;98112.41;5074634;28;20206;-58
2022/01/10 04:37:41;;;;;;;34.83;20.93;;;;;;;8.44;97.62;98105.59;5078920;28;20223;-58
2022/01/10 04:40:10;;;;;;;42.10;27.17;;;;;;;8.39;97.62;98106.44;5085991;28;20197;-57
2022/01/10 04:42:37;;;;;;;32.60;22.60;;;;;;;8.31;97.88;98108.97;5092631;28;20254;-58
2022/01/10 04:45:05;;;;;;;33.60;22.43;;;;;;;8.24;98.36;98110.63;5092650;28;20196;-58
2022/01/10 04:47:32;;;;;;;36.33;23.27;;;;;;;8.12;98.83;98117.41;5091745;28;20188;-58
2022/01/10 04:50:23;;;;;;;32.30;20.77;;;;;;;8.16;99.28;98116.56;5092300;28;20194;-58
2022/01/10 04:52:53;;;;;;;34.90;23.07;;;;;;;8.12;99.24;98112.28;5092416;28;20187;-58
2022/01/10 04:55:21;;;;;;;40.33;22.50;;;;;;;7.93;99.70;98093.47;5092311;28;20202;-58
2022/01/10 04:57:48;;;;;;;37.70;23.47;;;;;;;8.04;99.84;98119.09;5092042;28;20593;-57
2022/01/10 05:00:16;;;;;;;38.77;22.93;;;;;;;8.06;99.62;98115.69;5091839;28;20581;-58
2022/01/10 05:02:46;;;;;;;40.47;26.13;;;;;;;8.15;99.77;98118.28;5084930;28;20187;-57
2022/01/10 05:05:13;;;;;;;35.00;23.53;;;;;;;8.19;99.45;98117.44;5071943;28;20648;-57
2022/01/10 05:07:40;;;;;;;37.23;21.60;;;;;;;8.14;99.14;98115.69;5057777;28;20658;-58
2022/01/10 05:10:09;;;;;;;34.53;21.60;;;;;;;8.16;99.21;98125.09;5051979;28;20298;-57
2022/01/10 05:12:36;;;;;;;35.37;20.37;;;;;;;8.18;99.21;98120.00;5051718;28;20191;-57
2022/01/10 05:15:03;;;;;;;35.57;22.80;;;;;;;8.21;99.60;98128.50;5051656;28;20279;-57
2022/01/10 05:17:30;;;;;;;41.90;26.10;;;;;;;8.28;99.49;98124.31;5051750;28;20306;-58
2022/01/10 05:19:56;;;;;;;41.03;26.83;;;;;;;8.28;99.12;98125.19;5051675;28;20201;-58
2022/01/10 05:22:23;;;;;;;51.53;29.73;;;;;;;8.30;99.11;98122.59;5051533;28;20564;-58
2022/01/10 05:24:50;;;;;;;47.83;31.90;;;;;;;8.21;99.14;98123.41;5051285;28;20574;-58
2022/01/10 05:27:19;;;;;;;55.43;34.97;;;;;;;8.26;99.97;98131.97;5051022;28;20240;-57
2022/01/10 05:29:45;;;;;;;50.63;32.80;;;;;;;8.27;99.66;98130.25;5075559;28;20248;-58
2022/01/10 05:32:12;;;;;;;46.23;30.20;;;;;;;8.23;99.79;98131.09;5076027;28;20188;-58
2022/01/10 05:34:39;;;;;;;53.80;33.17;;;;;;;8.23;100.00;98136.22;5071162;28;20200;-58
2022/01/10 05:37:06;;;;;;;48.27;31.50;;;;;;;8.33;100.00;98140.53;5078536;28;20215;-58
2022/01/10 05:39:33;;;;;;;48.80;29.60;;;;;;;8.38;99.85;98141.41;5059171;28;20608;-58
2022/01/10 05:42:00;;;;;;;52.47;32.07;;;;;;;8.37;99.98;98143.97;5081264;28;20192;-59
2022/01/10 05:44:28;;;;;;;47.20;30.57;;;;;;;8.44;99.90;98150.78;5072353;28;20642;-59
2022/01/10 05:46:56;;;;;;;51.83;30.60;;;;;;;8.22;99.41;98103.78;5081796;28;20273;-58
2022/01/10 05:49:27;;;;;;;49.87;31.83;;;;;;;8.54;99.31;98157.66;5073455;28;20202;-57
2022/01/10 05:51:54;;;;;;;48.03;31.57;;;;;;;8.62;99.55;98155.97;5070837;28;20198;-58
2022/01/10 05:54:21;;;;;;;45.17;26.90;;;;;;;8.65;99.22;98156.00;5070826;28;20192;-57
2022/01/10 05:56:48;;;;;;;45.27;27.10;;;;;;;8.68;99.33;98161.94;5070487;28;20219;-57
2022/01/10 05:59:15;;;;;;;45.40;28.57;;;;;;;8.72;99.44;98162.81;5069994;28;20273;-57
2022/01/10 06:01:43;;;;;;;41.50;25.07;;;;;;;8.75;99.29;98161.13;5070907;28;20201;-57
2022/01/10 06:04:10;;;;;;;43.43;25.27;;;;;;;8.78;99.14;98168.81;5069405;28;20203;-57
2022/01/10 06:06:37;;;;;;;44.40;25.67;;;;;;;8.78;99.17;98171.38;5050703;28;20284;-58
2022/01/10 06:09:04;;;;;;;50.63;28.77;;;;;;;8.73;99.45;98156.84;5054037;28;20209;-58
2022/01/10 06:11:31;;;;;;;46.87;28.23;;;;;;;8.84;99.58;98173.94;5050274;28;20188;-58
2022/01/10 06:13:58;;;;;;;48.43;30.20;;;;;;;8.87;99.62;98180.78;5050433;28;20206;-58
2022/01/10 06:16:25;;;;;;;40.00;26.33;;;;;;;8.82;99.77;98183.31;5050199;28;20232;-58
2022/01/10 06:18:53;;;;;;;42.00;26.37;;;;;;;8.81;99.99;98179.06;5058978;28;20188;-58
2022/01/10 06:21:20;;;;;;;39.60;25.90;;;;;;;8.73;100.00;98175.63;5069971;28;20203;-58
2022/01/10 06:23:47;;;;;;;38.17;24.47;;;;;;;8.83;100.00;98179.06;5062376;28;20220;-58
2022/01/10 06:26:14;;;;;;;39.90;24.97;;;;;;;8.86;100.00;98177.38;5069145;28;20697;-58
2022/01/10 06:28:40;;;;;;;36.57;24.40;;;;;;;8.96;100.00;98179.91;5069590;28;20258;-58
2022/01/10 06:31:07;;;;;;;37.33;25.50;;;;;;;9.03;100.00;98173.97;5069961;28;20671;-58
2022/01/10 06:33:35;;;;;;;38.27;24.47;;;;;;;9.09;99.89;98185.06;5069905;28;20632;-58
2022/01/10 06:36:03;;;;;;;41.07;24.77;;;;;;;9.11;99.92;98188.50;5069547;28;20200;-57
2022/01/10 06:38:30;;;;;;;36.57;23.60;;;;;;;9.16;99.75;98194.47;5049769;28;20196;-58
2022/01/10 06:40:57;;;;;;;33.00;21.67;;;;;;;9.21;99.81;98197.03;5050044;28;20198;-58
2022/01/10 06:43:24;;;;;;;37.33;21.43;;;;;;;9.21;99.58;98199.59;5049446;28;20195;-58
2022/01/10 06:45:50;;;;;;;37.87;24.77;;;;;;;9.27;99.77;98200.47;5049559;28;20195;-58
2022/01/10 06:48:17;;;;;;;44.63;27.17;;;;;;;9.22;99.42;98207.31;5049799;28;20190;-57
2022/01/10 06:50:47;;;;;;;41.70;25.43;;;;;;;9.23;99.31;98200.47;5060601;28;20229;-58
2022/01/10 06:53:15;;;;;;;40.00;24.97;;;;;;;9.24;99.22;98202.16;5069612;28;20217;-59
2022/01/10 06:55:42;;;;;;;39.10;25.70;;;;;;;9.13;99.54;98203.88;5061254;28;20311;-58
2022/01/10 06:58:09;;;;;;;36.40;23.60;;;;;;;9.11;100.00;98198.75;5049637;28;20740;-58
2022/01/10 07:00:37;;;;;;;44.00;27.67;;;;;;;9.17;100.00;98206.44;5059124;28;20274;-58
2022/01/10 07:03:04;;;;;;;42.03;29.60;;;;;;;9.25;100.00;98207.31;5068700;28;20437;-58
2022/01/10 07:05:31;;;;;;;38.30;25.93;;;;;;;9.29;99.97;98203.00;5069488;28;20194;-58
2022/01/10 07:07:57;;;;;;;40.03;24.00;;;;;;;9.26;100.00;98200.44;5070043;28;20195;-58
2022/01/10 07:10:26;;;;;;;36.67;24.27;;;;;;;9.21;99.46;98200.47;5072511;28;20194;-58
2022/01/10 07:12:53;;;;;;;31.80;21.97;;;;;;;9.11;99.67;98203.00;5073650;28;20573;-57
2022/01/10 07:15:21;;;;;;;38.50;22.97;;;;;;;9.22;100.00;98201.31;5073554;28;20193;-57
2022/01/10 07:17:50;;;;;;;42.43;27.63;;;;;;;9.29;99.98;98200.44;5073020;28;20296;-58
2022/01/10 07:20:17;;;;;;;40.30;22.63;;;;;;;9.29;99.48;98213.25;5072836;28;20374;-58
2022/01/10 07:22:44;;;;;;;39.00;23.80;;;;;;;9.27;99.59;98208.16;5081173;28;20214;-58
2022/01/10 07:25:11;;;;;;;46.33;28.93;;;;;;;9.23;99.47;98216.69;5083901;28;20673;-58
2022/01/10 07:27:39;;;;;;;40.20;24.80;;;;;;;9.28;99.74;98219.25;5082430;28;20229;-58
2022/01/10 07:30:07;;;;;;;46.50;25.83;;;;;;;9.15;99.92;98214.97;5084847;28;20277;-58
2022/01/10 07:32:34;;;;;;;45.23;28.07;;;;;;;9.17;100.00;98211.56;5093771;28;20285;-58
2022/01/10 07:35:01;;;;;;;51.93;29.83;;;;;;;9.22;100.00;98215.00;5093749;28;20194;-58
2022/01/10 07:37:28;;;;;;;50.57;31.27;;;;;;;9.20;100.00;98216.66;5093519;28;20746;-57
2022/01/10 07:39:55;;;;;;;46.40;28.27;;;;;;;9.21;100.00;98220.09;5074406;28;20547;-58
2022/01/10 07:42:21;;;;;;;44.87;27.63;;;;;;;9.24;100.00;98213.28;5073823;28;20200;-57
2022/01/10 07:44:51;;;;;;;37.60;24.23;;;;;;;9.26;100.00;98219.25;5073211;28;20205;-58
2022/01/10 07:47:18;;;;;;;42.87;25.20;;;;;;;9.22;100.00;98207.31;5073165;28;20191;-58
2022/01/10 07:49:45;;;;;;;41.60;26.37;;;;;;;9.30;100.00;98220.13;5073278;28;20254;-58
2022/01/10 07:52:12;;;;;;;49.27;30.13;;;;;;;9.33;100.00;98227.81;5073197;28;20194;-57
2022/01/10 07:54:39;;;;;;;48.43;29.60;;;;;;;9.33;100.00;98227.81;5073237;28;20199;-58
2022/01/10 07:57:06;;;;;;;39.93;26.37;;;;;;;9.37;100.00;98232.06;5073034;28;20223;-58
2022/01/10 07:59:33;;;;;;;50.00;32.13;;;;;;;9.37;100.00;98230.34;5072722;28;20200;-58
2022/01/10 08:02:01;;;;;;;57.97;35.47;;;;;;;9.40;100.00;98232.06;5073180;28;20195;-58
2022/01/10 08:04:28;;;;;;;46.20;27.70;;;;;;;9.32;100.00;98239.75;5073002;28;20286;-58
2022/01/10 08:06:55;;;;;;;46.43;29.23;;;;;;;9.35;100.00;98233.78;5073345;28;20186;-58
2022/01/10 08:09:22;;;;;;;59.33;34.97;;;;;;;9.39;100.00;98235.50;5073180;28;20312;-58
2022/01/10 08:11:49;;;;;;;39.33;24.40;;;;;;;9.36;99.65;98225.25;5072607;28;20352;-58
2022/01/10 08:14:16;;;;;;;43.83;24.13;;;;;;;9.48;99.66;98232.94;5070263;28;21117;-58
2022/01/10 08:16:43;;;;;;;42.97;25.50;;;;;;;9.44;99.08;98229.53;5072783;28;20195;-58
2022/01/10 08:19:11;;;;;;;48.00;26.97;;;;;;;9.56;99.36;98243.22;5072560;28;20214;-58
2022/01/10 08:21:38;;;;;;;41.30;25.53;;;;;;;9.52;99.14;98234.66;5069182;28;20201;-59
2022/01/10 08:24:05;;;;;;;47.78;31.15;;;;;;;9.59;99.08;98238.91;5067493;28;20440;-59
2022/01/10 08:26:32;;;;;;;44.67;26.77;;;;;;;9.59;99.29;98238.06;5072038;28;20277;-59
2022/01/10 08:28:59;;;;;;;43.10;26.90;;;;;;;9.64;99.10;98234.63;5072768;28;20313;-59
2022/01/10 08:31:26;;;;;;;49.97;31.87;;;;;;;9.59;98.70;98233.78;5073176;28;20289;-59
2022/01/10 08:33:53;;;;;;;44.67;27.33;;;;;;;9.56;99.15;98230.38;5073166;28;20283;-59
2022/01/10 08:36:21;;;;;;;43.07;27.27;;;;;;;9.49;99.30;98235.50;5072409;28;20206;-58
2022/01/10 08:38:48;;;;;;;52.60;29.97;;;;;;;9.48;99.64;98231.22;5071784;28;20304;-57
2022/01/10 08:41:15;;;;;;;48.47;29.13;;;;;;;9.47;99.60;98229.53;5072072;28;20726;-59
2022/01/10 08:43:42;;;;;;;42.53;26.53;;;;;;;9.55;99.82;98234.66;5064248;28;20578;-59
2022/01/10 08:46:09;;;;;;;51.10;29.20;;;;;;;9.54;99.78;98237.19;5066489;28;20195;-58
2022/01/10 08:48:36;;;;;;;54.13;30.40;;;;;;;9.45;99.69;98230.34;5059987;28;20190;-59
2022/01/10 08:51:03;;;;;;;49.87;29.77;;;;;;;9.54;99.77;98232.06;5071697;28;20617;-58
2022/01/10 08:53:31;;;;;;;48.93;26.67;;;;;;;9.52;99.63;98229.53;5071684;28;20722;-58
2022/01/10 08:55:58;;;;;;;45.87;27.70;;;;;;;9.59;99.94;98233.78;5071769;28;20283;-58
2022/01/10 08:58:26;;;;;;;46.27;28.00;;;;;;;9.59;99.76;98228.66;5071566;28;20306;-59
2022/01/10 09:00:53;;;;;;;47.93;28.93;;;;;;;9.61;99.81;98223.53;5072016;28;20194;-59
2022/01/10 09:03:21;;;;;;;54.23;29.60;;;;;;;9.61;99.57;98216.72;5071865;28;20275;-60
2022/01/10 09:05:48;;;;;;;50.30;28.93;;;;;;;9.63;99.52;98221.81;5071699;28;20198;-59
2022/01/10 09:08:15;;;;;;;47.20;27.37;;;;;;;9.65;99.89;98226.09;5071528;28;20607;-59
2022/01/10 09:10:44;;;;;;;41.90;27.03;;;;;;;9.66;99.62;98227.81;5071562;28;20198;-59
2022/01/10 09:13:10;;;;;;;48.67;30.48;;;;;;;9.59;100.00;98228.66;5071188;28;20449;-59
2022/01/10 09:15:38;;;;;;;47.80;28.90;;;;;;;9.64;99.44;98226.09;5071733;28;20652;-58
2022/01/10 09:18:05;;;;;;;46.17;28.67;;;;;;;9.65;99.79;98223.53;5071513;28;20629;-59
2022/01/10 09:20:31;;;;;;;48.10;26.30;;;;;;;9.64;100.00;98224.38;5071241;28;20195;-59
2022/01/10 09:22:58;;;;;;;43.23;25.83;;;;;;;9.60;99.83;98220.13;5060398;28;20602;-58
2022/01/10 09:25:25;;;;;;;39.83;24.67;;;;;;;9.57;100.00;98220.13;5060432;28;20203;-58
2022/01/10 09:27:54;;;;;;;38.27;24.73;;;;;;;9.63;100.00;98222.69;5051118;28;20227;-58
2022/01/10 09:30:21;;;;;;;40.03;24.63;;;;;;;9.68;99.96;98223.53;5050341;28;20287;-58
2022/01/10 09:32:48;;;;;;;35.00;21.57;;;;;;;9.64;100.00;98221.81;5066814;28;20227;-58
2022/01/10 09:35:15;;;;;;;38.47;23.80;;;;;;;9.64;100.00;98220.97;5054124;28;20298;-58
2022/01/10 09:37:43;;;;;;;38.57;25.23;;;;;;;9.66;100.00;98215.00;5070849;28;20335;-59
2022/01/10 09:40:11;;;;;;;34.37;22.40;;;;;;;9.69;100.00;98214.13;5071179;28;20207;-58
2022/01/10 09:42:38;;;;;;;43.90;24.77;;;;;;;9.77;100.00;98215.84;5071228;28;20340;-59
2022/01/10 09:45:07;;;;;;;34.03;22.40;;;;;;;9.73;100.00;98216.69;5067324;28;20229;-59
2022/01/10 09:47:35;;;;;;;37.70;23.70;;;;;;;9.71;99.59;98212.41;5066340;28;20191;-59
2022/01/10 09:50:02;;;;;;;36.13;21.13;;;;;;;9.66;99.88;98201.31;5070316;28;20593;-59
2022/01/10 09:52:29;;;;;;;35.87;21.77;;;;;;;9.66;100.00;98209.88;5070677;28;20183;-59
2022/01/10 09:54:56;;;;;;;38.20;25.47;;;;;;;9.70;100.00;98203.84;5070442;28;20287;-58
2022/01/10 09:57:23;;;;;;;63.27;36.83;;;;;;;9.67;100.00;98210.72;5070056;28;20658;-58
2022/01/10 09:59:50;;;;;;;48.27;29.83;;;;;;;9.62;100.00;98197.88;5069929;28;20689;-58
2022/01/10 10:02:20;;;;;;;36.00;26.23;;;;;;;9.50;100.00;98173.09;5070127;28;20191;-59
2022/01/10 10:04:47;;;;;;;38.20;27.13;;;;;;;9.58;100.00;98192.78;5069919;28;20237;-58
2022/01/10 10:07:15;;;;;;;33.97;24.33;;;;;;;9.66;100.00;98199.59;5070087;28;20204;-59
2022/01/10 10:09:43;;;;;;;33.33;22.53;;;;;;;9.72;100.00;98206.44;5070021;28;20598;-59
2022/01/10 10:12:10;;;;;;;31.00;21.13;;;;;;;9.66;100.00;98197.03;5069726;28;20644;-58
2022/01/10 10:14:40;;;;;;;33.53;22.03;;;;;;;9.69;100.00;98191.91;5069841;28;20707;-58
2022/01/10 10:17:13;;;;;;;35.65;25.90;;;;;;;9.84;100.00;98193.56;5069053;28;20633;-58
2022/01/10 10:19:42;;;;;;;30.50;19.73;;;;;;;9.81;100.00;98194.44;5068150;28;20179;-58
2022/01/10 10:22:09;;;;;;;28.13;19.80;;;;;;;9.60;100.00;98204.72;5069027;28;20637;-58
2022/01/10 10:24:36;;;;;;;25.10;18.63;;;;;;;9.64;100.00;98197.91;5068558;28;20183;-58
2022/01/10 10:27:04;;;;;;;26.13;17.97;;;;;;;9.64;100.00;98196.16;5068466;28;20198;-57
2022/01/10 10:29:31;;;;;;;24.50;17.40;;;;;;;9.65;100.00;98205.56;5069740;28;20183;-58
2022/01/10 10:32:02;;;;;;;23.33;16.93;;;;;;;9.56;100.00;98197.06;5070274;28;20203;-58
2022/01/10 10:34:33;;;;;;;24.60;16.57;;;;;;;9.65;100.00;98205.56;5073026;28;20202;-58
2022/01/10 10:37:04;;;;;;;26.33;17.03;;;;;;;9.64;100.00;98191.03;5069812;28;20248;-58
2022/01/10 10:39:32;;;;;;;28.27;17.33;;;;;;;9.70;100.00;98193.59;5070218;28;20345;-58
2022/01/10 10:42:01;;;;;;;23.67;17.00;;;;;;;9.72;100.00;98191.91;5070316;28;20233;-58
2022/01/10 10:44:28;;;;;;;23.97;16.83;;;;;;;9.72;100.00;98188.50;5069346;28;20203;-58
2022/01/10 10:46:56;;;;;;;28.67;20.93;;;;;;;9.66;100.00;98191.91;5069951;28;20618;-58
2022/01/10 10:49:31;;;;;;;25.60;19.37;;;;;;;9.78;100.00;98194.44;5069948;28;20253;-58
2022/01/10 10:51:59;;;;;;;28.30;22.30;;;;;;;9.95;100.00;98195.28;5068720;28;20901;-58
2022/01/10 10:54:31;;;;;;;29.57;19.87;;;;;;;9.95;100.00;98186.72;5069718;28;20206;-58
2022/01/10 10:56:59;;;;;;;26.63;18.23;;;;;;;9.99;100.00;98198.69;5069892;28;20234;-57
2022/01/10 10:59:29;;;;;;;25.97;19.53;;;;;;;10.01;100.00;98191.84;5069915;28;20219;-58
2022/01/10 11:01:57;;;;;;;23.70;18.17;;;;;;;9.93;100.00;98193.56;5069946;28;20582;-58
2022/01/10 11:04:25;;;;;;;25.87;18.43;;;;;;;9.97;100.00;98197.84;5069756;28;20191;-57
2022/01/10 11:06:52;;;;;;;25.10;18.33;;;;;;;10.01;100.00;98194.41;5069313;28;20253;-58
2022/01/10 11:09:19;;;;;;;23.13;16.07;;;;;;;9.91;100.00;98195.28;5068412;28;20195;-57
2022/01/10 11:11:48;;;;;;;22.10;15.37;;;;;;;9.87;100.00;98197.00;5068259;28;20619;-57
2022/01/10 11:14:16;;;;;;;21.80;15.07;;;;;;;9.82;100.00;98185.91;5067271;28;20207;-57
2022/01/10 11:16:45;;;;;;;21.90;14.70;;;;;;;9.80;100.00;98197.88;5068840;28;20183;-58
2022/01/10 11:19:13;;;;;;;20.97;14.37;;;;;;;9.69;100.00;98163.69;5069005;28;20567;-58
2022/01/10 11:21:41;;;;;;;20.97;15.43;;;;;;;9.85;100.00;98195.31;5068893;28;20187;-57
2022/01/10 11:24:08;;;;;;;22.53;14.80;;;;;;;9.62;100.00;98161.13;5069542;28;20256;-58
2022/01/10 11:26:39;;;;;;;23.70;15.43;;;;;;;9.79;100.00;98188.47;5069614;28;20246;-58